createdAt,value
2023-03-06T00:00:52.177Z,97546.16
2023-03-06T00:03:19.228Z,97508.16
2023-03-06T00:05:46.496Z,97545.06
2023-03-06T00:08:13.356Z,97539.88
2023-03-06T00:10:40.402Z,97545.16
2023-03-06T00:13:15.229Z,97546.84
2023-03-06T00:15:42.332Z,97519.72
2023-03-06T00:18:09.374Z,97533.78
2023-03-06T00:20:36.475Z,97531.97
2023-03-06T00:23:03.050Z,97527.69
2023-03-06T00:25:29.746Z,97530.31
2023-03-06T00:27:56.445Z,97528.78
2023-03-06T00:30:24.963Z,97517.66
2023-03-06T00:32:53.444Z,97534.75
2023-03-06T00:35:20.404Z,97526.81
2023-03-06T00:37:47.203Z,97531.13
2023-03-06T00:40:17.150Z,97524.31
2023-03-06T00:42:43.739Z,97523.50
2023-03-06T00:45:10.702Z,97519.03
2023-03-06T00:47:38.736Z,97522.50
2023-03-06T00:50:06.011Z,97508.16
2023-03-06T00:52:32.914Z,97521.94
2023-03-06T00:54:59.514Z,97523.50
2023-03-06T00:57:26.124Z,97520.00
2023-03-06T00:59:52.884Z,97527.09
2023-03-06T01:02:21.117Z,97525.16
2023-03-06T01:04:47.679Z,97514.00
2023-03-06T01:07:14.338Z,97496.59
2023-03-06T01:09:41.122Z,97505.09
2023-03-06T01:12:08.102Z,97517.66
2023-03-06T01:14:34.854Z,97521.94
2023-03-06T01:17:01.854Z,97521.09
2023-03-06T01:19:28.405Z,97529.03
2023-03-06T01:21:55.067Z,97528.22
2023-03-06T01:24:23.914Z,97517.06
2023-03-06T01:26:50.609Z,97520.41
2023-03-06T01:29:17.302Z,97519.56
2023-03-06T01:31:43.964Z,97513.44
2023-03-06T01:34:10.521Z,97518.72
2023-03-06T01:36:37.334Z,97516.22
2023-03-06T01:39:03.873Z,97512.75
2023-03-06T01:41:30.586Z,97517.19
2023-03-06T01:43:57.177Z,97526.78
2023-03-06T01:46:32.683Z,97519.00
2023-03-06T01:49:02.722Z,97518.28
2023-03-06T01:51:35.959Z,97513.88
2023-03-06T01:54:11.334Z,97527.06
2023-03-06T01:56:40.795Z,97514.25
2023-03-06T01:59:07.626Z,97517.16
2023-03-06T02:01:35.594Z,97522.75
2023-03-06T02:04:02.372Z,97523.84
2023-03-06T02:06:29.450Z,97521.22
2023-03-06T02:08:56.273Z,97518.56
2023-03-06T02:11:25.162Z,97506.34
2023-03-06T02:13:53.537Z,97504.53
2023-03-06T02:16:25.151Z,97508.16
2023-03-06T02:18:53.177Z,97507.31
2023-03-06T02:21:28.754Z,97498.56
2023-03-06T02:24:34.305Z,97501.31
2023-03-06T02:27:03.781Z,97503.13
2023-03-06T02:29:31.345Z,97495.34
2023-03-06T02:32:01.087Z,97477.81
2023-03-06T02:34:28.256Z,97494.50
2023-03-06T02:37:06.923Z,97480.88
2023-03-06T02:39:38.942Z,97485.75
2023-03-06T02:42:05.948Z,97481.41
2023-03-06T02:44:34.980Z,97483.09
2023-03-06T02:47:01.777Z,97489.50
2023-03-06T02:49:28.334Z,97460.66
2023-03-06T02:51:54.860Z,97486.00
2023-03-06T02:54:21.535Z,97493.09
2023-03-06T02:56:49.815Z,97490.47
2023-03-06T02:59:16.378Z,97482.69
2023-03-06T03:01:43.291Z,97484.47
2023-03-06T03:04:10.090Z,97490.59
2023-03-06T03:06:37.445Z,97492.38
2023-03-06T03:09:04.466Z,97488.22
2023-03-06T03:11:31.049Z,97480.28
2023-03-06T03:13:57.567Z,97478.63
2023-03-06T03:16:26.877Z,97462.72
2023-03-06T03:18:57.293Z,97471.69
2023-03-06T03:21:24.918Z,97470.03
2023-03-06T03:23:53.896Z,97454.69
2023-03-06T03:26:21.563Z,97471.81
2023-03-06T03:29:04.173Z,97467.59
2023-03-06T03:31:32.257Z,97472.75
2023-03-06T03:34:00.483Z,97471.91
2023-03-06T03:36:29.098Z,97471.09
2023-03-06T03:38:57.642Z,97468.56
2023-03-06T03:41:24.547Z,97464.41
2023-03-06T03:43:51.814Z,97476.47
2023-03-06T03:46:21.447Z,97466.94
2023-03-06T03:48:48.738Z,97462.59
2023-03-06T03:51:16.591Z,97459.13
2023-03-06T03:53:47.083Z,97447.75
2023-03-06T03:56:18.089Z,97444.25
2023-03-06T03:58:55.685Z,97440.22
2023-03-06T04:01:24.615Z,97442.03
2023-03-06T04:03:51.175Z,97448.69
2023-03-06T04:06:18.722Z,97441.03
2023-03-06T04:08:46.201Z,97443.69
2023-03-06T04:11:13.279Z,97449.94
2023-03-06T04:13:39.891Z,97447.31
2023-03-06T04:16:07.360Z,97440.34
2023-03-06T04:18:35.712Z,97448.28
2023-03-06T04:21:05.836Z,97443.13
2023-03-06T04:23:32.972Z,97443.13
2023-03-06T04:26:00.047Z,97437.97
2023-03-06T04:28:27.558Z,97443.25
2023-03-06T04:30:54.175Z,97437.28
2023-03-06T04:33:21.059Z,97440.75
2023-03-06T04:35:48.130Z,97434.66
2023-03-06T04:38:19.713Z,97433.94
2023-03-06T04:40:46.567Z,97423.25
2023-03-06T04:43:13.243Z,97432.13
2023-03-06T04:45:39.884Z,97431.31
2023-03-06T04:48:06.808Z,97431.31
2023-03-06T04:50:33.745Z,97432.41
2023-03-06T04:53:01.835Z,97436.72
2023-03-06T04:55:28.804Z,97429.75
2023-03-06T04:57:55.872Z,97437.69
2023-03-06T05:00:25.489Z,97420.97
2023-03-06T05:02:52.446Z,97432.53
2023-03-06T05:05:19.332Z,97429.06
2023-03-06T05:07:46.036Z,97414.28
2023-03-06T05:10:17.447Z,97437.94
2023-03-06T05:12:44.617Z,97431.84
2023-03-06T05:15:13.014Z,97411.50
2023-03-06T05:17:39.881Z,97422.78
2023-03-06T05:20:08.043Z,97431.13
2023-03-06T05:22:35.074Z,97429.72
2023-03-06T05:25:01.707Z,97421.09
2023-03-06T05:27:28.719Z,97429.44
2023-03-06T05:29:55.350Z,97429.59
2023-03-06T05:32:22.524Z,97427.09
2023-03-06T05:34:49.396Z,97411.34
2023-03-06T05:37:16.149Z,97407.88
2023-03-06T05:39:42.867Z,97417.50
2023-03-06T05:42:09.774Z,97410.25
2023-03-06T05:44:36.651Z,97421.09
2023-03-06T05:47:03.450Z,97413.56
2023-03-06T05:49:34.872Z,97423.06
2023-03-06T05:52:06.421Z,97413.72
2023-03-06T05:54:34.908Z,97423.06
2023-03-06T05:57:01.922Z,97415.66
2023-03-06T05:59:29.076Z,97424.84
2023-03-06T06:01:55.954Z,97424.00
2023-03-06T06:04:25.944Z,97396.44
2023-03-06T06:06:55.128Z,97420.09
2023-03-06T06:09:24.567Z,97431.06
2023-03-06T06:11:52.822Z,97433.72
2023-03-06T06:14:20.265Z,97431.06
2023-03-06T06:16:47.138Z,97432.88
2023-03-06T06:19:18.555Z,97408.41
2023-03-06T06:21:47.744Z,97425.81
2023-03-06T06:24:23.997Z,97425.81
2023-03-06T06:26:52.808Z,97424.00
2023-03-06T06:29:19.505Z,97417.44
2023-03-06T06:31:46.376Z,97424.13
2023-03-06T06:34:14.165Z,97426.75
2023-03-06T06:36:41.871Z,97401.19
2023-03-06T06:39:09.003Z,97409.97
2023-03-06T06:41:53.594Z,97400.91
2023-03-06T06:44:22.379Z,97374.34
2023-03-06T06:47:21.273Z,97363.38
2023-03-06T06:49:37.567Z,97399.53
2023-03-06T06:52:06.294Z,97370.28
2023-03-06T06:54:34.353Z,97411.78
2023-03-06T06:57:00.932Z,97402.59
2023-03-06T06:59:27.673Z,97412.63
2023-03-06T07:01:54.222Z,97410.81
2023-03-06T07:04:21.005Z,97408.19
2023-03-06T07:06:47.703Z,97409.88
2023-03-06T07:09:14.368Z,97416.78
2023-03-06T07:11:41.612Z,97407.19
2023-03-06T07:14:08.418Z,97397.03
2023-03-06T07:16:35.056Z,97416.69
2023-03-06T07:19:02.012Z,97421.09
2023-03-06T07:21:28.594Z,97406.91
2023-03-06T07:23:57.333Z,97422.78
2023-03-06T07:26:27.731Z,97421.09
2023-03-06T07:28:55.007Z,97411.41
2023-03-06T07:31:23.621Z,97420.13
2023-03-06T07:33:51.044Z,97421.94
2023-03-06T07:36:18.287Z,97399.94
2023-03-06T07:38:45.706Z,97425.16
2023-03-06T07:41:13.795Z,97418.06
2023-03-06T07:43:41.601Z,97439.16
2023-03-06T07:46:09.047Z,97431.25
2023-03-06T07:48:39.683Z,97422.91
2023-03-06T07:51:12.965Z,97413.56
2023-03-06T07:53:39.671Z,97426.81
2023-03-06T07:56:08.975Z,97438.06
2023-03-06T07:58:39.554Z,97392.84
2023-03-06T08:01:09.080Z,97407.34
2023-03-06T08:03:36.023Z,97422.78
2023-03-06T08:06:09.788Z,97437.25
2023-03-06T08:08:37.343Z,97430.81
2023-03-06T08:11:04.061Z,97437.25
2023-03-06T08:13:30.649Z,97427.66
2023-03-06T08:15:57.468Z,97430.28
2023-03-06T08:18:23.992Z,97426.69
2023-03-06T08:20:50.717Z,97425.03
2023-03-06T08:23:17.545Z,97409.72
2023-03-06T08:25:44.423Z,97421.28
2023-03-06T08:28:11.355Z,97414.34
2023-03-06T08:30:37.946Z,97407.38
2023-03-06T08:33:06.780Z,97391.78
2023-03-06T08:35:33.529Z,97418.78
2023-03-06T08:38:00.088Z,97425.69
2023-03-06T08:40:30.354Z,97424.88
2023-03-06T08:42:56.975Z,97424.75
2023-03-06T08:45:23.609Z,97419.47
2023-03-06T08:47:50.183Z,97417.69
2023-03-06T08:50:17.011Z,97424.63
2023-03-06T08:52:43.675Z,97428.22
2023-03-06T08:55:10.759Z,97433.22
2023-03-06T08:57:37.441Z,97425.19
2023-03-06T09:00:09.025Z,97428.53
2023-03-06T09:02:37.835Z,97429.22
2023-03-06T09:05:08.647Z,97426.31
2023-03-06T09:07:36.044Z,97431.34
2023-03-06T09:10:02.599Z,97430.22
2023-03-06T09:12:30.826Z,97416.63
2023-03-06T09:15:04.255Z,97424.56
2023-03-06T09:17:30.929Z,97432.34
2023-03-06T09:19:57.463Z,97431.41
2023-03-06T09:22:24.113Z,97430.53
2023-03-06T09:24:50.763Z,97427.81
2023-03-06T09:27:17.520Z,97427.88
2023-03-06T09:29:44.030Z,97428.75
2023-03-06T09:32:12.188Z,97424.31
2023-03-06T09:34:38.792Z,97421.56
2023-03-06T09:37:05.864Z,97424.06
2023-03-06T09:39:32.481Z,97422.94
2023-03-06T09:41:59.529Z,97416.72
2023-03-06T09:44:32.366Z,97425.31
2023-03-06T09:47:17.118Z,97419.19
2023-03-06T09:50:05.813Z,97421.69
2023-03-06T09:52:47.691Z,97426.03
2023-03-06T09:55:17.022Z,97416.28
2023-03-06T09:58:00.593Z,97410.03
2023-03-06T10:00:39.092Z,97414.34
2023-03-06T10:03:22.748Z,97408.94
2023-03-06T10:06:02.919Z,97415.06
2023-03-06T10:08:57.079Z,97408.69
2023-03-06T10:11:35.835Z,97398.13
2023-03-06T10:14:32.031Z,97398.81
2023-03-06T10:16:58.780Z,97401.47
2023-03-06T10:19:34.235Z,97394.50
2023-03-06T10:22:28.446Z,97391.88
2023-03-06T10:24:59.504Z,97390.06
2023-03-06T10:27:38.362Z,97386.44
2023-03-06T10:30:26.488Z,97377.41
2023-03-06T10:32:58.403Z,97389.66
2023-03-06T10:35:31.261Z,97375.63
2023-03-06T10:38:18.237Z,97370.75
2023-03-06T10:41:07.581Z,97377.16
2023-03-06T10:43:36.473Z,97370.88
2023-03-06T10:46:07.408Z,97366.31
2023-03-06T10:48:42.282Z,97365.34
2023-03-06T10:51:18.443Z,97353.09
2023-03-06T10:54:01.419Z,97355.59
2023-03-06T10:56:38.704Z,97355.59
2023-03-06T10:59:16.223Z,97353.81
2023-03-06T11:01:45.893Z,97345.75
2023-03-06T11:04:23.570Z,97325.59
2023-03-06T11:07:15.712Z,97350.06
2023-03-06T11:10:19.387Z,97342.00
2023-03-06T11:13:22.602Z,97334.94
2023-03-06T11:15:56.932Z,97334.06
2023-03-06T11:18:54.699Z,97336.56
2023-03-06T11:21:32.812Z,97343.41
2023-03-06T11:24:21.310Z,97333.66
2023-03-06T11:26:51.301Z,97329.19
2023-03-06T11:29:43.256Z,97331.72
2023-03-06T11:32:20.439Z,97324.63
2023-03-06T11:35:06.124Z,97321.03
2023-03-06T11:37:32.625Z,97316.56
2023-03-06T11:40:12.960Z,97320.06
2023-03-06T11:42:58.074Z,97311.97
2023-03-06T11:45:37.126Z,97312.81
2023-03-06T11:48:16.498Z,97307.41
2023-03-06T11:50:49.050Z,97310.88
2023-03-06T11:53:20.030Z,97306.28
2023-03-06T11:55:46.616Z,97295.72
2023-03-06T11:58:33.858Z,97292.78
2023-03-06T12:01:32.816Z,97288.22
2023-03-06T12:04:05.270Z,97285.41
2023-03-06T12:06:40.747Z,97282.63
2023-03-06T12:09:13.496Z,97277.09
2023-03-06T12:11:52.076Z,97277.78
2023-03-06T12:14:27.539Z,97276.66
2023-03-06T12:17:18.915Z,97259.84
2023-03-06T12:20:13.855Z,97272.75
2023-03-06T12:22:57.515Z,97261.38
2023-03-06T12:25:32.842Z,97266.19
2023-03-06T12:28:09.243Z,97257.19
2023-03-06T12:30:35.927Z,97258.69
2023-03-06T12:33:17.266Z,97255.94
2023-03-06T12:35:56.298Z,97256.50
2023-03-06T12:38:37.787Z,97255.50
2023-03-06T12:41:22.558Z,97250.09
2023-03-06T12:43:58.133Z,97247.28
2023-03-06T12:46:26.799Z,97245.50
2023-03-06T12:49:39.668Z,97239.91
2023-03-06T12:52:08.244Z,97236.28
2023-03-06T12:54:39.236Z,97231.00
2023-03-06T12:57:08.110Z,97231.81
2023-03-06T12:59:34.614Z,97234.34
2023-03-06T13:02:04.380Z,97236.84
2023-03-06T13:04:41.310Z,97227.78
2023-03-06T13:07:22.979Z,97225.53
2023-03-06T13:10:10.796Z,97224.56
2023-03-06T13:13:05.160Z,97225.25
2023-03-06T13:15:46.226Z,97225.25
2023-03-06T13:18:21.726Z,97215.34
2023-03-06T13:20:50.980Z,97216.03
2023-03-06T13:23:29.823Z,97214.09
2023-03-06T13:26:00.068Z,97210.47
2023-03-06T13:28:50.111Z,97207.69
2023-03-06T13:31:27.906Z,97201.31
2023-03-06T13:34:01.033Z,97214.66
2023-03-06T13:36:30.322Z,97212.81
2023-03-06T13:38:59.875Z,97222.41
2023-03-06T13:41:34.320Z,97229.50
2023-03-06T13:44:07.852Z,97235.63
2023-03-06T13:46:37.153Z,97241.75
2023-03-06T13:49:09.580Z,97249.00
2023-03-06T13:51:37.798Z,97250.81
2023-03-06T13:54:32.352Z,97254.41
2023-03-06T13:57:04.647Z,97258.19
2023-03-06T13:59:38.781Z,97261.81
2023-03-06T14:02:10.335Z,97256.66
2023-03-06T14:04:53.613Z,97244.44
2023-03-06T14:07:33.436Z,97240.25
2023-03-06T14:10:01.827Z,97220.28
2023-03-06T14:12:37.989Z,97240.56
2023-03-06T14:15:17.746Z,97233.78
2023-03-06T14:17:52.719Z,97218.91
2023-03-06T14:20:21.436Z,97232.25
2023-03-06T14:22:47.965Z,97229.72
2023-03-06T14:25:26.875Z,97231.56
2023-03-06T14:27:58.189Z,97228.06
2023-03-06T14:30:27.009Z,97229.19
2023-03-06T14:32:55.115Z,97206.28
2023-03-06T14:35:32.298Z,97226.69
2023-03-06T14:38:02.180Z,97218.91
2023-03-06T14:40:43.686Z,97218.91
2023-03-06T14:43:20.453Z,97227.81
2023-03-06T14:46:02.346Z,97217.53
2023-03-06T14:48:40.952Z,97220.84
2023-03-06T14:51:23.840Z,97214.75
2023-03-06T14:53:52.783Z,97211.25
2023-03-06T14:56:21.849Z,97199.03
2023-03-06T14:58:54.410Z,97203.50
2023-03-06T15:01:42.045Z,97198.91
2023-03-06T15:04:27.442Z,97196.38
2023-03-06T15:06:56.358Z,97192.91
2023-03-06T15:09:32.663Z,97182.50
2023-03-06T15:12:30.636Z,97189.31
2023-03-06T15:14:58.746Z,97185.69
2023-03-06T15:17:29.357Z,97190.00
2023-03-06T15:19:58.197Z,97192.66
2023-03-06T15:22:40.123Z,97191.78
2023-03-06T15:25:27.576Z,97187.38
2023-03-06T15:28:00.119Z,97188.19
2023-03-06T15:30:30.367Z,97192.50
2023-03-06T15:33:18.224Z,97183.63
2023-03-06T15:36:02.993Z,97194.28
2023-03-06T15:38:44.338Z,97189.00
2023-03-06T15:41:37.297Z,97187.38
2023-03-06T15:44:12.461Z,97196.94
2023-03-06T15:46:39.317Z,97187.47
2023-03-06T15:49:14.066Z,97189.84
2023-03-06T15:51:40.672Z,97196.81
2023-03-06T15:54:12.364Z,97197.63
2023-03-06T15:56:42.335Z,97200.13
2023-03-06T15:59:16.884Z,97192.88
2023-03-06T16:01:43.693Z,97190.25
2023-03-06T16:04:10.382Z,97195.53
2023-03-06T16:06:40.337Z,97192.72
2023-03-06T16:09:06.940Z,97198.00
2023-03-06T16:11:43.405Z,97198.88
2023-03-06T16:14:21.069Z,97188.13
2023-03-06T16:16:49.261Z,97179.44
2023-03-06T16:19:25.999Z,97197.88
2023-03-06T16:21:54.245Z,97189.81
2023-03-06T16:24:20.880Z,97195.25
2023-03-06T16:26:50.829Z,97196.88
2023-03-06T16:29:19.673Z,97190.09
2023-03-06T16:31:46.331Z,97195.09
2023-03-06T16:34:13.250Z,97196.75
2023-03-06T16:36:40.042Z,97202.06
2023-03-06T16:39:14.559Z,97191.63
2023-03-06T16:41:41.543Z,97207.34
2023-03-06T16:44:10.053Z,97208.31
2023-03-06T16:46:42.435Z,97197.88
2023-03-06T16:49:16.268Z,97212.91
2023-03-06T16:51:43.118Z,97217.22
2023-03-06T16:54:09.770Z,97216.50
2023-03-06T16:56:36.394Z,97226.41
2023-03-06T16:59:02.945Z,97227.38
2023-03-06T17:01:29.509Z,97225.88
2023-03-06T17:03:56.082Z,97219.88
2023-03-06T17:06:23.331Z,97221.72
2023-03-06T17:08:50.562Z,97222.69
2023-03-06T17:11:17.652Z,97227.13
2023-03-06T17:13:44.236Z,97222.81
2023-03-06T17:16:18.326Z,97224.63
2023-03-06T17:18:46.063Z,97214.22
2023-03-06T17:21:17.451Z,97213.38
2023-03-06T17:23:44.525Z,97219.50
2023-03-06T17:26:12.809Z,97223.09
2023-03-06T17:28:39.820Z,97226.72
2023-03-06T17:31:19.853Z,97227.69
2023-03-06T17:33:47.249Z,97228.66
2023-03-06T17:36:14.763Z,97227.00
2023-03-06T17:38:41.959Z,97222.13
2023-03-06T17:41:10.229Z,97223.81
2023-03-06T17:43:38.131Z,97224.78
2023-03-06T17:46:10.143Z,97210.47
2023-03-06T17:48:37.764Z,97216.44
2023-03-06T17:51:05.130Z,97211.59
2023-03-06T17:53:32.759Z,97225.19
2023-03-06T17:55:59.401Z,97221.03
2023-03-06T17:58:27.301Z,97227.03
2023-03-06T18:00:54.124Z,97219.22
2023-03-06T18:03:21.115Z,97219.22
2023-03-06T18:05:47.672Z,97214.94
2023-03-06T18:08:14.362Z,97220.22
2023-03-06T18:10:43.374Z,97223.84
2023-03-06T18:13:10.689Z,97229.13
2023-03-06T18:15:41.203Z,97224.81
2023-03-06T18:18:09.157Z,97221.31
2023-03-06T18:20:40.917Z,97225.94
2023-03-06T18:23:07.645Z,97226.88
2023-03-06T18:25:34.257Z,97227.88
2023-03-06T18:28:00.816Z,97223.56
2023-03-06T18:30:27.425Z,97227.16
2023-03-06T18:32:54.594Z,97223.84
2023-03-06T18:35:21.315Z,97230.09
2023-03-06T18:37:48.341Z,97230.25
2023-03-06T18:40:15.095Z,97227.63
2023-03-06T18:42:42.714Z,97229.56
2023-03-06T18:45:10.574Z,97226.09
2023-03-06T18:47:40.408Z,97215.09
2023-03-06T18:50:07.440Z,97221.78
2023-03-06T18:52:34.787Z,97211.91
2023-03-06T18:55:01.373Z,97227.34
2023-03-06T18:57:30.206Z,97220.38
2023-03-06T18:59:59.955Z,97223.31
2023-03-06T19:02:27.723Z,97230.28
2023-03-06T19:04:54.545Z,97232.06
2023-03-06T19:07:21.088Z,97232.91
2023-03-06T19:09:49.044Z,97222.34
2023-03-06T19:12:16.614Z,97215.25
2023-03-06T19:14:44.060Z,97232.91
2023-03-06T19:17:10.569Z,97222.34
2023-03-06T19:19:37.209Z,97220.69
2023-03-06T19:22:03.767Z,97227.75
2023-03-06T19:24:30.388Z,97225.97
2023-03-06T19:26:59.532Z,97226.09
2023-03-06T19:29:26.579Z,97219.16
2023-03-06T19:31:53.258Z,97217.47
2023-03-06T19:34:19.880Z,97210.53
2023-03-06T19:36:46.478Z,97209.72
2023-03-06T19:39:13.152Z,97208.88
2023-03-06T19:41:39.687Z,97215.09
2023-03-06T19:44:06.556Z,97206.78
2023-03-06T19:46:34.453Z,97216.13
2023-03-06T19:49:02.749Z,97215.25
2023-03-06T19:51:29.560Z,97212.78
2023-03-06T19:53:57.586Z,97214.59
2023-03-06T19:56:29.073Z,97214.59
2023-03-06T19:58:56.378Z,97210.28
2023-03-06T20:01:24.820Z,97208.63
2023-03-06T20:03:58.582Z,97214.72
2023-03-06T20:06:28.028Z,97192.63
2023-03-06T20:08:54.838Z,97213.75
2023-03-06T20:11:24.380Z,97217.22
2023-03-06T20:13:51.557Z,97204.03
2023-03-06T20:16:18.691Z,97219.72
2023-03-06T20:18:47.765Z,97228.63
2023-03-06T20:21:14.695Z,97224.31
2023-03-06T20:23:41.812Z,97229.59
2023-03-06T20:26:12.078Z,97225.97
2023-03-06T20:28:40.030Z,97223.47
2023-03-06T20:31:13.351Z,97220.84
2023-03-06T20:33:40.071Z,97220.97
2023-03-06T20:36:18.715Z,97217.50
2023-03-06T20:38:47.779Z,97213.19
2023-03-06T20:41:16.570Z,97206.25
2023-03-06T20:43:43.794Z,97187.78
2023-03-06T20:46:11.741Z,97206.38
2023-03-06T20:48:39.029Z,97203.75
2023-03-06T20:51:31.488Z,97202.94
2023-03-06T20:53:59.911Z,97192.94
2023-03-06T20:56:29.238Z,97195.13
2023-03-06T20:58:56.984Z,97194.31
2023-03-06T21:01:30.592Z,97197.91
2023-03-06T21:03:58.341Z,97201.41
2023-03-06T21:06:26.303Z,97189.19
2023-03-06T21:08:53.003Z,97194.44
2023-03-06T21:11:19.883Z,97197.09
2023-03-06T21:13:47.864Z,97191.81
2023-03-06T21:16:16.819Z,97198.88
2023-03-06T21:18:44.374Z,97193.59
2023-03-06T21:21:18.762Z,97187.50
2023-03-06T21:23:47.050Z,97196.41
2023-03-06T21:26:16.026Z,97195.56
2023-03-06T21:28:42.781Z,97194.72
2023-03-06T21:31:11.758Z,97189.59
2023-03-06T21:33:39.010Z,97185.97
2023-03-06T21:36:06.606Z,97195.03
2023-03-06T21:38:33.593Z,97199.34
2023-03-06T21:41:27.746Z,97196.69
2023-03-06T21:44:01.899Z,97194.06
2023-03-06T21:46:29.313Z,97199.44
2023-03-06T21:48:56.618Z,97191.53
2023-03-06T21:51:25.051Z,97197.66
2023-03-06T21:53:53.102Z,97194.16
2023-03-06T21:56:22.006Z,97181.28
2023-03-06T21:58:48.770Z,97185.59
2023-03-06T22:01:22.774Z,97178.75
2023-03-06T22:03:49.846Z,97176.09
2023-03-06T22:06:21.328Z,97178.75
2023-03-06T22:08:48.470Z,97173.63
2023-03-06T22:11:17.964Z,97169.84
2023-03-06T22:13:45.792Z,97172.22
2023-03-06T22:16:12.588Z,97173.91
2023-03-06T22:18:39.699Z,97172.94
2023-03-06T22:21:15.047Z,97173.59
2023-03-06T22:23:42.199Z,97173.47
2023-03-06T22:26:12.248Z,97176.94
2023-03-06T22:28:39.414Z,97171.53
2023-03-06T22:31:09.829Z,97176.66
2023-03-06T22:33:37.082Z,97175.69
2023-03-06T22:36:07.558Z,97171.25
2023-03-06T22:38:35.599Z,97173.03
2023-03-06T22:41:02.224Z,97172.06
2023-03-06T22:43:29.340Z,97176.38
2023-03-06T22:46:03.839Z,97176.22
2023-03-06T22:48:31.054Z,97162.91
2023-03-06T22:51:02.465Z,97169.28
2023-03-06T22:53:29.145Z,97171.66
2023-03-06T22:55:58.919Z,97180.38
2023-03-06T22:58:34.357Z,97180.28
2023-03-06T23:01:06.252Z,97164.84
2023-03-06T23:03:33.229Z,97168.84
2023-03-06T23:05:59.751Z,97170.53
2023-03-06T23:08:26.421Z,97172.19
2023-03-06T23:10:52.849Z,97173.88
2023-03-06T23:13:38.954Z,97171.22
2023-03-06T23:16:24.915Z,97172.06
2023-03-06T23:19:10.271Z,97178.16
2023-03-06T23:21:55.407Z,97174.69
2023-03-06T23:24:40.722Z,97171.91
2023-03-06T23:27:07.340Z,97170.94
2023-03-06T23:29:33.819Z,97165.66
2023-03-06T23:32:01.232Z,97172.59
2023-03-06T23:34:27.769Z,97170.78
2023-03-06T23:36:54.329Z,97173.31
2023-03-06T23:39:22.242Z,97163.00
2023-03-06T23:41:48.864Z,97174.13
2023-03-06T23:44:15.370Z,97174.13
2023-03-06T23:46:41.953Z,97164.38
2023-03-06T23:49:08.706Z,97172.28
2023-03-06T23:51:35.309Z,97172.28
2023-03-06T23:54:01.914Z,97168.69
2023-03-06T23:56:28.676Z,97171.31
2023-03-06T23:58:55.513Z,97174.81
